Terminal Aerodrome Forecast
Issued by NWS Lake Charles, LA

Home | Current Version | Previous Version | Text Only | Print | Product List | Glossary On
Versions: 1 2 3 4 5 6 7 8 9 10 11 12 13 14 15 16 17
446
FTUS44 KLCH 192335
TAFAEX
TAF
KAEX 192335Z 2000/2024 17004KT P6SM FEW040 BKN250
     FM200800 VRB03KT 4SM BR SCT012 SCT250
      TEMPO 2010/2013 1SM BR VV003
     FM201500 18005KT P6SM BKN012 BKN250
     FM201900 19007KT P6SM VCSH SCT025 SCT250=

USA.gov is the U.S. government's official web portal to all federal, state and local government web resources and services.